sensor_id;sensor_type;location;lat;lon;timestamp;P1;durP1;ratioP1;P2;durP2;ratioP2
27003;SDS011;14546;47.590;19.022;2022-07-29T00:00:58;3.97;;;3.05;;
27003;SDS011;14546;47.590;19.022;2022-07-29T00:03:24;6.45;;;2.80;;
27003;SDS011;14546;47.590;19.022;2022-07-29T00:05:50;5.97;;;3.05;;
27003;SDS011;14546;47.590;19.022;2022-07-29T00:08:20;5.32;;;2.75;;
27003;SDS011;14546;47.590;19.022;2022-07-29T00:10:47;3.83;;;3.15;;
27003;SDS011;14546;47.590;19.022;2022-07-29T00:13:13;6.30;;;2.97;;
27003;SDS011;14546;47.590;19.022;2022-07-29T00:15:39;3.28;;;2.88;;
27003;SDS011;14546;47.590;19.022;2022-07-29T00:18:05;3.88;;;2.72;;
27003;SDS011;14546;47.590;19.022;2022-07-29T00:20:32;4.85;;;2.92;;
27003;SDS011;14546;47.590;19.022;2022-07-29T00:22:58;4.50;;;2.90;;
27003;SDS011;14546;47.590;19.022;2022-07-29T00:25:24;5.97;;;2.70;;
27003;SDS011;14546;47.590;19.022;2022-07-29T00:27:51;3.95;;;2.90;;
27003;SDS011;14546;47.590;19.022;2022-07-29T00:30:17;3.20;;;2.70;;
27003;SDS011;14546;47.590;19.022;2022-07-29T00:32:43;2.92;;;2.63;;
27003;SDS011;14546;47.590;19.022;2022-07-29T00:35:09;3.42;;;2.65;;
27003;SDS011;14546;47.590;19.022;2022-07-29T00:37:55;5.32;;;3.00;;
27003;SDS011;14546;47.590;19.022;2022-07-29T00:40:21;3.75;;;2.78;;
27003;SDS011;14546;47.590;19.022;2022-07-29T00:42:49;6.65;;;2.90;;
27003;SDS011;14546;47.590;19.022;2022-07-29T00:45:16;3.58;;;2.78;;
27003;SDS011;14546;47.590;19.022;2022-07-29T00:47:42;8.27;;;3.15;;
27003;SDS011;14546;47.590;19.022;2022-07-29T00:50:10;3.53;;;3.10;;
27003;SDS011;14546;47.590;19.022;2022-07-29T00:52:38;4.07;;;2.85;;
27003;SDS011;14546;47.590;19.022;2022-07-29T00:55:05;3.35;;;2.92;;
27003;SDS011;14546;47.590;19.022;2022-07-29T00:57:32;6.20;;;2.75;;
27003;SDS011;14546;47.590;19.022;2022-07-29T00:59:58;4.25;;;3.00;;
27003;SDS011;14546;47.590;19.022;2022-07-29T01:02:24;3.25;;;2.90;;
27003;SDS011;14546;47.590;19.022;2022-07-29T01:04:50;4.97;;;2.83;;
27003;SDS011;14546;47.590;19.022;2022-07-29T01:07:17;3.40;;;2.80;;
27003;SDS011;14546;47.590;19.022;2022-07-29T01:09:44;5.22;;;3.10;;
27003;SDS011;14546;47.590;19.022;2022-07-29T01:12:12;7.13;;;3.17;;
27003;SDS011;14546;47.590;19.022;2022-07-29T01:14:39;4.35;;;2.72;;
27003;SDS011;14546;47.590;19.022;2022-07-29T01:17:09;3.08;;;2.88;;
27003;SDS011;14546;47.590;19.022;2022-07-29T01:22:27;5.85;;;2.65;;
27003;SDS011;14546;47.590;19.022;2022-07-29T01:30:14;4.10;;;3.17;;
27003;SDS011;14546;47.590;19.022;2022-07-29T01:32:41;5.05;;;2.60;;
27003;SDS011;14546;47.590;19.022;2022-07-29T01:35:23;3.47;;;2.97;;
27003;SDS011;14546;47.590;19.022;2022-07-29T01:38:01;3.88;;;3.30;;
27003;SDS011;14546;47.590;19.022;2022-07-29T01:41:13;5.03;;;3.13;;
27003;SDS011;14546;47.590;19.022;2022-07-29T01:43:20;6.07;;;3.17;;
27003;SDS011;14546;47.590;19.022;2022-07-29T01:46:00;7.30;;;3.35;;
27003;SDS011;14546;47.590;19.022;2022-07-29T01:48:29;3.30;;;3.00;;
27003;SDS011;14546;47.590;19.022;2022-07-29T01:50:58;5.65;;;3.10;;
27003;SDS011;14546;47.590;19.022;2022-07-29T01:53:31;8.30;;;3.55;;
27003;SDS011;14546;47.590;19.022;2022-07-29T01:55:58;9.43;;;3.58;;
27003;SDS011;14546;47.590;19.022;2022-07-29T01:58:26;3.20;;;2.90;;
27003;SDS011;14546;47.590;19.022;2022-07-29T02:00:54;6.20;;;3.13;;
27003;SDS011;14546;47.590;19.022;2022-07-29T02:03:22;4.32;;;3.10;;
27003;SDS011;14546;47.590;19.022;2022-07-29T02:05:48;5.47;;;2.75;;
27003;SDS011;14546;47.590;19.022;2022-07-29T02:08:16;3.15;;;2.85;;
27003;SDS011;14546;47.590;19.022;2022-07-29T02:10:45;4.40;;;2.90;;
27003;SDS011;14546;47.590;19.022;2022-07-29T02:13:12;4.18;;;3.05;;
27003;SDS011;14546;47.590;19.022;2022-07-29T02:15:39;10.43;;;3.42;;
27003;SDS011;14546;47.590;19.022;2022-07-29T02:18:09;4.88;;;3.40;;
27003;SDS011;14546;47.590;19.022;2022-07-29T02:20:37;4.65;;;2.90;;
27003;SDS011;14546;47.590;19.022;2022-07-29T02:23:05;5.70;;;3.10;;
27003;SDS011;14546;47.590;19.022;2022-07-29T02:25:32;4.47;;;2.95;;
27003;SDS011;14546;47.590;19.022;2022-07-29T02:27:58;4.45;;;3.03;;
27003;SDS011;14546;47.590;19.022;2022-07-29T02:30:26;2.92;;;2.65;;
27003;SDS011;14546;47.590;19.022;2022-07-29T02:32:53;5.43;;;3.13;;
27003;SDS011;14546;47.590;19.022;2022-07-29T02:35:20;6.93;;;3.00;;
27003;SDS011;14546;47.590;19.022;2022-07-29T02:37:47;4.90;;;3.00;;
27003;SDS011;14546;47.590;19.022;2022-07-29T02:40:34;9.10;;;2.83;;
27003;SDS011;14546;47.590;19.022;2022-07-29T02:43:02;8.40;;;3.00;;
27003;SDS011;14546;47.590;19.022;2022-07-29T02:45:29;5.07;;;2.90;;
27003;SDS011;14546;47.590;19.022;2022-07-29T02:47:56;4.75;;;3.30;;
27003;SDS011;14546;47.590;19.022;2022-07-29T02:50:34;4.38;;;3.03;;
27003;SDS011;14546;47.590;19.022;2022-07-29T02:53:05;7.50;;;3.25;;
27003;SDS011;14546;47.590;19.022;2022-07-29T02:55:34;8.48;;;3.08;;
27003;SDS011;14546;47.590;19.022;2022-07-29T02:58:03;4.68;;;3.08;;
27003;SDS011;14546;47.590;19.022;2022-07-29T03:00:34;6.47;;;3.17;;
27003;SDS011;14546;47.590;19.022;2022-07-29T03:03:04;4.63;;;3.22;;
27003;SDS011;14546;47.590;19.022;2022-07-29T03:05:33;3.97;;;3.15;;
27003;SDS011;14546;47.590;19.022;2022-07-29T03:08:01;5.78;;;3.35;;
27003;SDS011;14546;47.590;19.022;2022-07-29T03:10:28;5.20;;;3.00;;
27003;SDS011;14546;47.590;19.022;2022-07-29T03:12:55;10.57;;;3.88;;
27003;SDS011;14546;47.590;19.022;2022-07-29T03:15:22;24.65;;;5.35;;
27003;SDS011;14546;47.590;19.022;2022-07-29T03:17:49;16.80;;;5.40;;
27003;SDS011;14546;47.590;19.022;2022-07-29T03:20:16;20.92;;;5.05;;
27003;SDS011;14546;47.590;19.022;2022-07-29T03:22:44;10.95;;;4.20;;
27003;SDS011;14546;47.590;19.022;2022-07-29T03:25:13;10.18;;;3.90;;
27003;SDS011;14546;47.590;19.022;2022-07-29T03:27:43;5.35;;;3.42;;
27003;SDS011;14546;47.590;19.022;2022-07-29T03:30:10;5.80;;;3.53;;
27003;SDS011;14546;47.590;19.022;2022-07-29T03:32:36;6.53;;;3.75;;
27003;SDS011;14546;47.590;19.022;2022-07-29T03:35:04;4.82;;;3.55;;
27003;SDS011;14546;47.590;19.022;2022-07-29T03:37:30;5.95;;;3.38;;
27003;SDS011;14546;47.590;19.022;2022-07-29T03:39:57;4.85;;;3.70;;
27003;SDS011;14546;47.590;19.022;2022-07-29T03:42:24;6.97;;;3.60;;
27003;SDS011;14546;47.590;19.022;2022-07-29T03:44:54;6.43;;;4.03;;
27003;SDS011;14546;47.590;19.022;2022-07-29T03:47:22;7.57;;;3.05;;
27003;SDS011;14546;47.590;19.022;2022-07-29T03:49:53;6.50;;;3.75;;
27003;SDS011;14546;47.590;19.022;2022-07-29T03:52:23;5.25;;;3.13;;
27003;SDS011;14546;47.590;19.022;2022-07-29T03:54:49;3.90;;;3.50;;
27003;SDS011;14546;47.590;19.022;2022-07-29T03:57:15;6.00;;;3.58;;
27003;SDS011;14546;47.590;19.022;2022-07-29T03:59:44;6.65;;;3.60;;
27003;SDS011;14546;47.590;19.022;2022-07-29T04:02:11;6.32;;;3.88;;
27003;SDS011;14546;47.590;19.022;2022-07-29T04:04:37;4.95;;;3.63;;
27003;SDS011;14546;47.590;19.022;2022-07-29T04:07:04;7.38;;;4.10;;
27003;SDS011;14546;47.590;19.022;2022-07-29T04:09:30;6.05;;;3.63;;
27003;SDS011;14546;47.590;19.022;2022-07-29T04:11:56;5.80;;;3.72;;
27003;SDS011;14546;47.590;19.022;2022-07-29T04:14:22;6.20;;;3.78;;
27003;SDS011;14546;47.590;19.022;2022-07-29T04:16:48;7.22;;;4.18;;
27003;SDS011;14546;47.590;19.022;2022-07-29T04:19:14;8.68;;;4.05;;
27003;SDS011;14546;47.590;19.022;2022-07-29T04:21:40;8.82;;;3.97;;
27003;SDS011;14546;47.590;19.022;2022-07-29T04:24:06;5.50;;;3.67;;
27003;SDS011;14546;47.590;19.022;2022-07-29T04:26:33;5.72;;;3.70;;
27003;SDS011;14546;47.590;19.022;2022-07-29T04:29:00;10.18;;;4.00;;
27003;SDS011;14546;47.590;19.022;2022-07-29T04:31:26;5.28;;;3.78;;
27003;SDS011;14546;47.590;19.022;2022-07-29T04:33:51;6.20;;;4.03;;
27003;SDS011;14546;47.590;19.022;2022-07-29T04:36:17;12.15;;;4.25;;
27003;SDS011;14546;47.590;19.022;2022-07-29T04:38:43;4.82;;;3.95;;
27003;SDS011;14546;47.590;19.022;2022-07-29T04:41:08;7.38;;;3.83;;
27003;SDS011;14546;47.590;19.022;2022-07-29T04:43:34;7.88;;;4.22;;
27003;SDS011;14546;47.590;19.022;2022-07-29T04:46:01;7.03;;;3.70;;
27003;SDS011;14546;47.590;19.022;2022-07-29T04:48:29;9.05;;;3.97;;
27003;SDS011;14546;47.590;19.022;2022-07-29T04:50:55;12.98;;;4.00;;
27003;SDS011;14546;47.590;19.022;2022-07-29T04:53:22;7.45;;;4.00;;
27003;SDS011;14546;47.590;19.022;2022-07-29T04:55:48;5.10;;;3.63;;
27003;SDS011;14546;47.590;19.022;2022-07-29T04:58:14;4.72;;;4.03;;
27003;SDS011;14546;47.590;19.022;2022-07-29T05:00:40;5.18;;;3.90;;
27003;SDS011;14546;47.590;19.022;2022-07-29T05:03:06;6.55;;;3.90;;
27003;SDS011;14546;47.590;19.022;2022-07-29T05:05:32;14.32;;;4.28;;
27003;SDS011;14546;47.590;19.022;2022-07-29T05:07:58;5.80;;;3.70;;
27003;SDS011;14546;47.590;19.022;2022-07-29T05:10:24;7.50;;;3.88;;
27003;SDS011;14546;47.590;19.022;2022-07-29T05:12:51;7.70;;;4.22;;
27003;SDS011;14546;47.590;19.022;2022-07-29T05:15:17;7.88;;;4.20;;
27003;SDS011;14546;47.590;19.022;2022-07-29T05:17:44;12.55;;;3.95;;
27003;SDS011;14546;47.590;19.022;2022-07-29T05:20:09;4.70;;;3.63;;
27003;SDS011;14546;47.590;19.022;2022-07-29T05:22:35;5.40;;;4.07;;
27003;SDS011;14546;47.590;19.022;2022-07-29T05:25:01;7.35;;;4.38;;
27003;SDS011;14546;47.590;19.022;2022-07-29T05:27:28;8.88;;;3.92;;
27003;SDS011;14546;47.590;19.022;2022-07-29T05:29:54;8.65;;;4.15;;
27003;SDS011;14546;47.590;19.022;2022-07-29T05:32:20;12.43;;;4.45;;
27003;SDS011;14546;47.590;19.022;2022-07-29T05:34:46;6.45;;;3.53;;
27003;SDS011;14546;47.590;19.022;2022-07-29T05:37:12;4.75;;;3.30;;
27003;SDS011;14546;47.590;19.022;2022-07-29T05:39:39;4.78;;;3.53;;
27003;SDS011;14546;47.590;19.022;2022-07-29T05:42:11;6.35;;;3.40;;
27003;SDS011;14546;47.590;19.022;2022-07-29T05:44:37;6.95;;;3.80;;
27003;SDS011;14546;47.590;19.022;2022-07-29T05:47:05;8.45;;;3.80;;
27003;SDS011;14546;47.590;19.022;2022-07-29T05:49:31;6.15;;;3.55;;
27003;SDS011;14546;47.590;19.022;2022-07-29T05:51:57;7.35;;;3.72;;
27003;SDS011;14546;47.590;19.022;2022-07-29T05:54:23;9.82;;;3.45;;
27003;SDS011;14546;47.590;19.022;2022-07-29T05:56:49;5.70;;;3.60;;
27003;SDS011;14546;47.590;19.022;2022-07-29T05:59:15;9.38;;;3.88;;
27003;SDS011;14546;47.590;19.022;2022-07-29T06:01:41;5.38;;;3.72;;
27003;SDS011;14546;47.590;19.022;2022-07-29T06:04:06;3.97;;;3.33;;
27003;SDS011;14546;47.590;19.022;2022-07-29T06:06:33;7.57;;;3.50;;
27003;SDS011;14546;47.590;19.022;2022-07-29T06:08:59;4.07;;;3.22;;
27003;SDS011;14546;47.590;19.022;2022-07-29T06:11:25;4.95;;;3.83;;
27003;SDS011;14546;47.590;19.022;2022-07-29T06:13:51;3.95;;;3.60;;
27003;SDS011;14546;47.590;19.022;2022-07-29T06:16:18;9.05;;;3.78;;
27003;SDS011;14546;47.590;19.022;2022-07-29T06:18:43;6.03;;;3.92;;
27003;SDS011;14546;47.590;19.022;2022-07-29T06:21:09;6.38;;;4.18;;
27003;SDS011;14546;47.590;19.022;2022-07-29T06:23:38;6.97;;;3.45;;
27003;SDS011;14546;47.590;19.022;2022-07-29T06:26:04;8.07;;;3.88;;
27003;SDS011;14546;47.590;19.022;2022-07-29T06:28:31;4.85;;;3.97;;
27003;SDS011;14546;47.590;19.022;2022-07-29T06:30:57;5.38;;;3.90;;
27003;SDS011;14546;47.590;19.022;2022-07-29T06:33:24;8.13;;;3.78;;
27003;SDS011;14546;47.590;19.022;2022-07-29T06:35:49;4.20;;;3.67;;
27003;SDS011;14546;47.590;19.022;2022-07-29T06:38:15;5.30;;;3.63;;
27003;SDS011;14546;47.590;19.022;2022-07-29T06:40:42;6.18;;;3.80;;
27003;SDS011;14546;47.590;19.022;2022-07-29T06:43:43;8.27;;;4.00;;
27003;SDS011;14546;47.590;19.022;2022-07-29T06:46:11;9.57;;;3.42;;
27003;SDS011;14546;47.590;19.022;2022-07-29T06:48:40;6.53;;;3.53;;
27003;SDS011;14546;47.590;19.022;2022-07-29T06:51:07;10.35;;;3.85;;
27003;SDS011;14546;47.590;19.022;2022-07-29T06:53:34;8.82;;;3.72;;
27003;SDS011;14546;47.590;19.022;2022-07-29T06:56:01;10.23;;;4.35;;
27003;SDS011;14546;47.590;19.022;2022-07-29T06:58:28;7.22;;;3.58;;
27003;SDS011;14546;47.590;19.022;2022-07-29T07:00:54;9.40;;;4.18;;
27003;SDS011;14546;47.590;19.022;2022-07-29T07:03:20;6.22;;;3.60;;
27003;SDS011;14546;47.590;19.022;2022-07-29T07:05:47;8.80;;;3.92;;
27003;SDS011;14546;47.590;19.022;2022-07-29T07:08:14;10.15;;;4.03;;
27003;SDS011;14546;47.590;19.022;2022-07-29T07:10:42;9.43;;;3.72;;
27003;SDS011;14546;47.590;19.022;2022-07-29T07:13:08;10.73;;;4.05;;
27003;SDS011;14546;47.590;19.022;2022-07-29T07:15:35;11.65;;;4.22;;
27003;SDS011;14546;47.590;19.022;2022-07-29T07:18:01;13.15;;;4.07;;
27003;SDS011;14546;47.590;19.022;2022-07-29T07:20:27;12.73;;;3.40;;
27003;SDS011;14546;47.590;19.022;2022-07-29T07:22:53;7.07;;;3.55;;
27003;SDS011;14546;47.590;19.022;2022-07-29T07:25:19;11.20;;;4.13;;
27003;SDS011;14546;47.590;19.022;2022-07-29T07:27:46;10.20;;;3.53;;
27003;SDS011;14546;47.590;19.022;2022-07-29T07:30:11;12.45;;;3.97;;
27003;SDS011;14546;47.590;19.022;2022-07-29T07:32:37;7.40;;;4.25;;
27003;SDS011;14546;47.590;19.022;2022-07-29T07:35:04;8.90;;;3.70;;
27003;SDS011;14546;47.590;19.022;2022-07-29T07:37:31;8.98;;;3.85;;
27003;SDS011;14546;47.590;19.022;2022-07-29T07:39:57;17.40;;;4.22;;
27003;SDS011;14546;47.590;19.022;2022-07-29T07:42:23;8.73;;;3.63;;
27003;SDS011;14546;47.590;19.022;2022-07-29T07:44:49;15.70;;;4.55;;
27003;SDS011;14546;47.590;19.022;2022-07-29T07:47:15;6.60;;;3.47;;
27003;SDS011;14546;47.590;19.022;2022-07-29T07:49:49;9.80;;;3.95;;
27003;SDS011;14546;47.590;19.022;2022-07-29T07:52:17;9.23;;;3.67;;
27003;SDS011;14546;47.590;19.022;2022-07-29T07:54:44;12.73;;;3.67;;
27003;SDS011;14546;47.590;19.022;2022-07-29T07:57:11;9.05;;;3.78;;
27003;SDS011;14546;47.590;19.022;2022-07-29T07:59:38;8.38;;;3.63;;
27003;SDS011;14546;47.590;19.022;2022-07-29T08:02:04;4.53;;;3.35;;
27003;SDS011;14546;47.590;19.022;2022-07-29T08:04:31;7.20;;;3.65;;
27003;SDS011;14546;47.590;19.022;2022-07-29T08:06:58;7.38;;;3.50;;
27003;SDS011;14546;47.590;19.022;2022-07-29T08:09:25;10.65;;;3.70;;
27003;SDS011;14546;47.590;19.022;2022-07-29T08:11:52;7.97;;;3.53;;
27003;SDS011;14546;47.590;19.022;2022-07-29T08:14:18;8.50;;;3.53;;
27003;SDS011;14546;47.590;19.022;2022-07-29T08:16:45;7.65;;;3.90;;
27003;SDS011;14546;47.590;19.022;2022-07-29T08:19:11;6.63;;;3.58;;
27003;SDS011;14546;47.590;19.022;2022-07-29T08:21:37;7.03;;;4.03;;
27003;SDS011;14546;47.590;19.022;2022-07-29T08:24:03;5.60;;;3.45;;
27003;SDS011;14546;47.590;19.022;2022-07-29T08:26:48;14.98;;;3.47;;
27003;SDS011;14546;47.590;19.022;2022-07-29T08:29:14;9.52;;;3.92;;
27003;SDS011;14546;47.590;19.022;2022-07-29T08:31:41;11.18;;;3.60;;
27003;SDS011;14546;47.590;19.022;2022-07-29T08:34:07;9.63;;;3.30;;
27003;SDS011;14546;47.590;19.022;2022-07-29T08:36:33;7.13;;;3.65;;
27003;SDS011;14546;47.590;19.022;2022-07-29T08:38:59;5.70;;;3.50;;
27003;SDS011;14546;47.590;19.022;2022-07-29T08:41:26;5.75;;;3.75;;
27003;SDS011;14546;47.590;19.022;2022-07-29T08:43:52;14.60;;;3.75;;
27003;SDS011;14546;47.590;19.022;2022-07-29T08:46:19;10.38;;;3.13;;
27003;SDS011;14546;47.590;19.022;2022-07-29T08:48:47;5.05;;;3.20;;
27003;SDS011;14546;47.590;19.022;2022-07-29T08:51:20;6.65;;;3.42;;
27003;SDS011;14546;47.590;19.022;2022-07-29T08:56:13;8.32;;;3.35;;
27003;SDS011;14546;47.590;19.022;2022-07-29T08:58:41;8.90;;;3.45;;
27003;SDS011;14546;47.590;19.022;2022-07-29T09:01:07;5.85;;;3.42;;
27003;SDS011;14546;47.590;19.022;2022-07-29T09:03:36;13.40;;;3.63;;
27003;SDS011;14546;47.590;19.022;2022-07-29T09:06:03;13.85;;;3.60;;
27003;SDS011;14546;47.590;19.022;2022-07-29T09:08:32;6.82;;;2.92;;
27003;SDS011;14546;47.590;19.022;2022-07-29T09:11:03;5.90;;;3.40;;
27003;SDS011;14546;47.590;19.022;2022-07-29T09:13:29;8.32;;;3.22;;
27003;SDS011;14546;47.590;19.022;2022-07-29T09:15:55;6.47;;;3.20;;
27003;SDS011;14546;47.590;19.022;2022-07-29T09:18:42;11.52;;;3.40;;
27003;SDS011;14546;47.590;19.022;2022-07-29T09:21:08;5.00;;;3.00;;
27003;SDS011;14546;47.590;19.022;2022-07-29T09:26:29;9.03;;;3.53;;
27003;SDS011;14546;47.590;19.022;2022-07-29T09:28:56;6.72;;;3.17;;
27003;SDS011;14546;47.590;19.022;2022-07-29T09:34:09;8.15;;;2.78;;
27003;SDS011;14546;47.590;19.022;2022-07-29T09:36:42;4.88;;;2.85;;
27003;SDS011;14546;47.590;19.022;2022-07-29T09:39:09;7.28;;;3.10;;
27003;SDS011;14546;47.590;19.022;2022-07-29T09:41:52;12.82;;;3.30;;
27003;SDS011;14546;47.590;19.022;2022-07-29T09:47:00;7.75;;;3.42;;
27003;SDS011;14546;47.590;19.022;2022-07-29T09:52:20;8.93;;;3.20;;
27003;SDS011;14546;47.590;19.022;2022-07-29T09:54:47;8.38;;;3.05;;
27003;SDS011;14546;47.590;19.022;2022-07-29T09:57:26;9.40;;;2.97;;
27003;SDS011;14546;47.590;19.022;2022-07-29T09:59:56;8.23;;;3.50;;
27003;SDS011;14546;47.590;19.022;2022-07-29T10:02:22;10.20;;;3.30;;
27003;SDS011;14546;47.590;19.022;2022-07-29T10:04:53;6.07;;;2.80;;
27003;SDS011;14546;47.590;19.022;2022-07-29T10:07:19;11.05;;;2.88;;
27003;SDS011;14546;47.590;19.022;2022-07-29T10:09:54;5.45;;;2.90;;
27003;SDS011;14546;47.590;19.022;2022-07-29T10:12:21;11.30;;;2.70;;
27003;SDS011;14546;47.590;19.022;2022-07-29T10:14:47;3.58;;;2.50;;
27003;SDS011;14546;47.590;19.022;2022-07-29T10:17:14;7.07;;;2.22;;
27003;SDS011;14546;47.590;19.022;2022-07-29T10:19:41;10.90;;;2.70;;
27003;SDS011;14546;47.590;19.022;2022-07-29T10:22:08;5.65;;;2.60;;
27003;SDS011;14546;47.590;19.022;2022-07-29T10:24:34;5.07;;;2.63;;
27003;SDS011;14546;47.590;19.022;2022-07-29T10:27:05;6.55;;;2.80;;
27003;SDS011;14546;47.590;19.022;2022-07-29T10:29:31;6.53;;;2.58;;
27003;SDS011;14546;47.590;19.022;2022-07-29T10:32:09;5.63;;;2.45;;
27003;SDS011;14546;47.590;19.022;2022-07-29T10:40:00;5.57;;;2.63;;
27003;SDS011;14546;47.590;19.022;2022-07-29T10:42:52;7.22;;;2.67;;
27003;SDS011;14546;47.590;19.022;2022-07-29T10:45:18;17.02;;;2.90;;
27003;SDS011;14546;47.590;19.022;2022-07-29T10:47:46;7.93;;;3.00;;
27003;SDS011;14546;47.590;19.022;2022-07-29T10:50:12;7.70;;;2.80;;
27003;SDS011;14546;47.590;19.022;2022-07-29T10:55:31;6.10;;;2.58;;
27003;SDS011;14546;47.590;19.022;2022-07-29T10:58:14;7.22;;;2.60;;
27003;SDS011;14546;47.590;19.022;2022-07-29T11:00:40;5.07;;;2.40;;
27003;SDS011;14546;47.590;19.022;2022-07-29T11:03:07;8.27;;;2.15;;
27003;SDS011;14546;47.590;19.022;2022-07-29T11:05:52;4.22;;;2.10;;
27003;SDS011;14546;47.590;19.022;2022-07-29T11:08:20;4.72;;;2.10;;
27003;SDS011;14546;47.590;19.022;2022-07-29T11:10:48;4.55;;;2.10;;
27003;SDS011;14546;47.590;19.022;2022-07-29T11:15:59;9.48;;;2.40;;
27003;SDS011;14546;47.590;19.022;2022-07-29T11:18:25;7.28;;;2.35;;
27003;SDS011;14546;47.590;19.022;2022-07-29T11:20:51;5.43;;;2.55;;
27003;SDS011;14546;47.590;19.022;2022-07-29T11:23:24;6.88;;;2.05;;
27003;SDS011;14546;47.590;19.022;2022-07-29T11:31:19;5.18;;;2.30;;
27003;SDS011;14546;47.590;19.022;2022-07-29T11:33:45;7.75;;;2.60;;
27003;SDS011;14546;47.590;19.022;2022-07-29T11:36:12;4.32;;;2.33;;
27003;SDS011;14546;47.590;19.022;2022-07-29T11:38:38;4.35;;;2.17;;
27003;SDS011;14546;47.590;19.022;2022-07-29T11:43:49;5.88;;;2.60;;
27003;SDS011;14546;47.590;19.022;2022-07-29T11:49:03;5.45;;;2.05;;
27003;SDS011;14546;47.590;19.022;2022-07-29T11:51:29;12.80;;;3.15;;
27003;SDS011;14546;47.590;19.022;2022-07-29T11:53:56;3.55;;;2.13;;
27003;SDS011;14546;47.590;19.022;2022-07-29T11:56:23;4.65;;;2.22;;
27003;SDS011;14546;47.590;19.022;2022-07-29T11:59:00;3.75;;;2.03;;
27003;SDS011;14546;47.590;19.022;2022-07-29T12:01:26;9.07;;;2.05;;
27003;SDS011;14546;47.590;19.022;2022-07-29T12:04:01;7.20;;;1.92;;
27003;SDS011;14546;47.590;19.022;2022-07-29T12:06:27;8.85;;;2.10;;
27003;SDS011;14546;47.590;19.022;2022-07-29T12:08:53;2.97;;;1.67;;
27003;SDS011;14546;47.590;19.022;2022-07-29T12:11:20;4.95;;;1.92;;
27003;SDS011;14546;47.590;19.022;2022-07-29T12:13:46;7.25;;;2.13;;
27003;SDS011;14546;47.590;19.022;2022-07-29T12:16:12;3.42;;;2.10;;
27003;SDS011;14546;47.590;19.022;2022-07-29T12:18:38;2.88;;;1.90;;
27003;SDS011;14546;47.590;19.022;2022-07-29T12:21:04;5.70;;;2.53;;
27003;SDS011;14546;47.590;19.022;2022-07-29T12:23:31;4.80;;;1.98;;
27003;SDS011;14546;47.590;19.022;2022-07-29T12:25:59;3.38;;;1.88;;
27003;SDS011;14546;47.590;19.022;2022-07-29T12:28:26;4.18;;;1.80;;
27003;SDS011;14546;47.590;19.022;2022-07-29T12:30:52;3.97;;;2.03;;
27003;SDS011;14546;47.590;19.022;2022-07-29T12:33:19;8.95;;;2.15;;
27003;SDS011;14546;47.590;19.022;2022-07-29T12:35:47;4.28;;;2.05;;
27003;SDS011;14546;47.590;19.022;2022-07-29T12:38:13;8.88;;;1.95;;
27003;SDS011;14546;47.590;19.022;2022-07-29T12:40:40;6.18;;;2.20;;
27003;SDS011;14546;47.590;19.022;2022-07-29T12:45:36;10.55;;;2.38;;
27003;SDS011;14546;47.590;19.022;2022-07-29T12:48:03;6.53;;;2.03;;
27003;SDS011;14546;47.590;19.022;2022-07-29T12:50:29;5.43;;;1.95;;
27003;SDS011;14546;47.590;19.022;2022-07-29T12:53:07;5.03;;;1.90;;
27003;SDS011;14546;47.590;19.022;2022-07-29T12:55:37;7.45;;;1.95;;
27003;SDS011;14546;47.590;19.022;2022-07-29T12:58:04;5.20;;;2.10;;
27003;SDS011;14546;47.590;19.022;2022-07-29T13:00:30;6.20;;;1.83;;
27003;SDS011;14546;47.590;19.022;2022-07-29T13:02:56;6.10;;;1.90;;
27003;SDS011;14546;47.590;19.022;2022-07-29T13:05:23;4.90;;;1.98;;
27003;SDS011;14546;47.590;19.022;2022-07-29T13:07:49;4.53;;;2.00;;
27003;SDS011;14546;47.590;19.022;2022-07-29T13:15:26;7.93;;;1.85;;
27003;SDS011;14546;47.590;19.022;2022-07-29T13:17:52;4.40;;;1.98;;
27003;SDS011;14546;47.590;19.022;2022-07-29T13:20:18;7.38;;;1.90;;
27003;SDS011;14546;47.590;19.022;2022-07-29T13:22:49;5.07;;;2.08;;
27003;SDS011;14546;47.590;19.022;2022-07-29T13:25:22;10.15;;;2.30;;
27003;SDS011;14546;47.590;19.022;2022-07-29T13:27:49;10.25;;;2.28;;
27003;SDS011;14546;47.590;19.022;2022-07-29T13:30:15;6.30;;;2.00;;
27003;SDS011;14546;47.590;19.022;2022-07-29T13:32:41;6.60;;;2.00;;
27003;SDS011;14546;47.590;19.022;2022-07-29T13:35:07;2.88;;;1.70;;
27003;SDS011;14546;47.590;19.022;2022-07-29T13:37:34;3.05;;;1.73;;
27003;SDS011;14546;47.590;19.022;2022-07-29T13:40:03;5.53;;;2.20;;
27003;SDS011;14546;47.590;19.022;2022-07-29T13:42:29;4.57;;;1.90;;
27003;SDS011;14546;47.590;19.022;2022-07-29T13:44:56;5.35;;;1.92;;
27003;SDS011;14546;47.590;19.022;2022-07-29T13:47:22;3.88;;;2.30;;
27003;SDS011;14546;47.590;19.022;2022-07-29T13:49:48;3.13;;;1.88;;
27003;SDS011;14546;47.590;19.022;2022-07-29T13:52:14;2.38;;;1.80;;
27003;SDS011;14546;47.590;19.022;2022-07-29T13:54:41;2.88;;;1.70;;
27003;SDS011;14546;47.590;19.022;2022-07-29T13:57:07;4.65;;;1.98;;
27003;SDS011;14546;47.590;19.022;2022-07-29T13:59:33;4.85;;;1.70;;
27003;SDS011;14546;47.590;19.022;2022-07-29T14:01:59;3.33;;;1.88;;
27003;SDS011;14546;47.590;19.022;2022-07-29T14:04:25;9.90;;;1.70;;
27003;SDS011;14546;47.590;19.022;2022-07-29T14:06:51;2.88;;;1.70;;
27003;SDS011;14546;47.590;19.022;2022-07-29T14:09:17;4.53;;;1.80;;
27003;SDS011;14546;47.590;19.022;2022-07-29T14:11:43;7.85;;;2.00;;
27003;SDS011;14546;47.590;19.022;2022-07-29T14:14:10;3.30;;;1.92;;
27003;SDS011;14546;47.590;19.022;2022-07-29T14:16:37;6.30;;;1.80;;
27003;SDS011;14546;47.590;19.022;2022-07-29T14:19:03;2.78;;;1.70;;
27003;SDS011;14546;47.590;19.022;2022-07-29T14:21:29;4.55;;;1.92;;
27003;SDS011;14546;47.590;19.022;2022-07-29T14:23:55;4.30;;;2.40;;
27003;SDS011;14546;47.590;19.022;2022-07-29T14:26:21;3.83;;;1.60;;
27003;SDS011;14546;47.590;19.022;2022-07-29T14:28:47;8.45;;;2.40;;
27003;SDS011;14546;47.590;19.022;2022-07-29T14:31:14;7.97;;;2.00;;
27003;SDS011;14546;47.590;19.022;2022-07-29T14:33:40;6.35;;;2.03;;
27003;SDS011;14546;47.590;19.022;2022-07-29T14:36:07;6.97;;;2.03;;
27003;SDS011;14546;47.590;19.022;2022-07-29T14:38:34;4.93;;;2.05;;
27003;SDS011;14546;47.590;19.022;2022-07-29T14:41:00;3.63;;;1.80;;
27003;SDS011;14546;47.590;19.022;2022-07-29T14:43:26;6.63;;;1.92;;
27003;SDS011;14546;47.590;19.022;2022-07-29T14:45:52;3.95;;;1.90;;
27003;SDS011;14546;47.590;19.022;2022-07-29T14:48:18;5.13;;;1.92;;
27003;SDS011;14546;47.590;19.022;2022-07-29T14:50:44;4.60;;;2.05;;
27003;SDS011;14546;47.590;19.022;2022-07-29T14:53:10;4.97;;;2.10;;
27003;SDS011;14546;47.590;19.022;2022-07-29T14:55:39;3.45;;;1.83;;
27003;SDS011;14546;47.590;19.022;2022-07-29T14:58:06;5.97;;;2.00;;
27003;SDS011;14546;47.590;19.022;2022-07-29T15:00:32;4.15;;;1.75;;
27003;SDS011;14546;47.590;19.022;2022-07-29T15:02:59;3.47;;;1.90;;
27003;SDS011;14546;47.590;19.022;2022-07-29T15:05:26;3.05;;;2.05;;
27003;SDS011;14546;47.590;19.022;2022-07-29T15:07:52;4.28;;;2.15;;
27003;SDS011;14546;47.590;19.022;2022-07-29T15:10:18;2.72;;;1.90;;
27003;SDS011;14546;47.590;19.022;2022-07-29T15:12:44;7.20;;;2.35;;
27003;SDS011;14546;47.590;19.022;2022-07-29T15:15:10;5.05;;;2.00;;
27003;SDS011;14546;47.590;19.022;2022-07-29T15:17:36;2.85;;;1.67;;
27003;SDS011;14546;47.590;19.022;2022-07-29T15:20:02;3.85;;;1.92;;
27003;SDS011;14546;47.590;19.022;2022-07-29T15:22:28;10.98;;;2.50;;
27003;SDS011;14546;47.590;19.022;2022-07-29T15:24:54;3.22;;;2.00;;
27003;SDS011;14546;47.590;19.022;2022-07-29T15:27:20;5.85;;;2.03;;